sensor_id;sensor_type;location;lat;lon;timestamp;P1;durP1;ratioP1;P2;durP2;ratioP2
16387;SDS011;8303;53.446;9.988;2023-07-31T04:43:34;818.23;;;759.90;;
16387;SDS011;8303;53.446;9.988;2023-07-31T04:46:04;866.50;;;804.53;;
16387;SDS011;8303;53.446;9.988;2023-07-31T04:48:31;871.90;;;809.53;;
16387;SDS011;8303;53.446;9.988;2023-07-31T04:50:58;829.27;;;771.67;;
16387;SDS011;8303;53.446;9.988;2023-07-31T04:53:24;843.50;;;783.27;;
16387;SDS011;8303;53.446;9.988;2023-07-31T04:55:52;860.90;;;799.07;;
16387;SDS011;8303;53.446;9.988;2023-07-31T04:58:18;863.23;;;800.30;;
16387;SDS011;8303;53.446;9.988;2023-07-31T05:00:47;862.73;;;802.57;;
16387;SDS011;8303;53.446;9.988;2023-07-31T05:03:14;864.13;;;802.57;;
16387;SDS011;8303;53.446;9.988;2023-07-31T05:05:41;841.90;;;780.87;;
16387;SDS011;8303;53.446;9.988;2023-07-31T05:08:08;838.60;;;780.00;;
16387;SDS011;8303;53.446;9.988;2023-07-31T05:10:35;868.67;;;805.50;;
16387;SDS011;8303;53.446;9.988;2023-07-31T05:13:02;855.47;;;793.50;;
16387;SDS011;8303;53.446;9.988;2023-07-31T05:15:29;841.50;;;782.30;;
16387;SDS011;8303;53.446;9.988;2023-07-31T05:17:57;828.00;;;768.93;;
16387;SDS011;8303;53.446;9.988;2023-07-31T05:20:25;853.40;;;793.60;;
16387;SDS011;8303;53.446;9.988;2023-07-31T05:22:52;827.80;;;768.73;;
16387;SDS011;8303;53.446;9.988;2023-07-31T05:25:19;868.73;;;806.70;;
16387;SDS011;8303;53.446;9.988;2023-07-31T05:27:49;824.77;;;766.23;;
16387;SDS011;8303;53.446;9.988;2023-07-31T05:30:16;841.73;;;782.37;;
16387;SDS011;8303;53.446;9.988;2023-07-31T05:32:43;873.60;;;809.97;;
16387;SDS011;8303;53.446;9.988;2023-07-31T05:35:11;878.80;;;816.17;;
16387;SDS011;8303;53.446;9.988;2023-07-31T05:37:38;828.03;;;769.40;;
16387;SDS011;8303;53.446;9.988;2023-07-31T05:40:06;869.87;;;808.43;;
16387;SDS011;8303;53.446;9.988;2023-07-31T05:42:34;853.33;;;790.80;;
16387;SDS011;8303;53.446;9.988;2023-07-31T05:45:04;872.00;;;809.37;;
16387;SDS011;8303;53.446;9.988;2023-07-31T05:47:32;860.07;;;798.60;;
16387;SDS011;8303;53.446;9.988;2023-07-31T05:49:59;894.73;;;830.33;;
16387;SDS011;8303;53.446;9.988;2023-07-31T05:52:27;843.10;;;782.07;;
16387;SDS011;8303;53.446;9.988;2023-07-31T05:54:55;844.40;;;784.20;;
16387;SDS011;8303;53.446;9.988;2023-07-31T05:57:22;866.73;;;804.10;;
16387;SDS011;8303;53.446;9.988;2023-07-31T05:59:49;871.30;;;809.07;;
16387;SDS011;8303;53.446;9.988;2023-07-31T06:02:16;859.87;;;797.60;;
16387;SDS011;8303;53.446;9.988;2023-07-31T06:04:43;856.23;;;794.97;;
16387;SDS011;8303;53.446;9.988;2023-07-31T06:07:10;877.27;;;813.90;;
16387;SDS011;8303;53.446;9.988;2023-07-31T06:09:38;851.63;;;790.87;;
16387;SDS011;8303;53.446;9.988;2023-07-31T06:12:05;836.37;;;777.00;;
16387;SDS011;8303;53.446;9.988;2023-07-31T06:14:33;866.93;;;804.43;;
16387;SDS011;8303;53.446;9.988;2023-07-31T06:17:00;839.95;;;780.05;;
16387;SDS011;8303;53.446;9.988;2023-07-31T06:19:29;870.57;;;808.77;;
16387;SDS011;8303;53.446;9.988;2023-07-31T06:21:56;874.03;;;810.43;;
16387;SDS011;8303;53.446;9.988;2023-07-31T06:24:23;908.42;;;840.85;;
16387;SDS011;8303;53.446;9.988;2023-07-31T06:26:56;841.37;;;779.90;;
16387;SDS011;8303;53.446;9.988;2023-07-31T06:29:23;863.47;;;800.73;;
16387;SDS011;8303;53.446;9.988;2023-07-31T06:31:50;853.67;;;792.00;;
16387;SDS011;8303;53.446;9.988;2023-07-31T06:34:17;855.08;;;793.70;;
16387;SDS011;8303;53.446;9.988;2023-07-31T06:36:45;813.23;;;756.10;;
16387;SDS011;8303;53.446;9.988;2023-07-31T06:39:12;873.35;;;810.35;;
16387;SDS011;8303;53.446;9.988;2023-07-31T06:41:39;856.33;;;795.37;;
16387;SDS011;8303;53.446;9.988;2023-07-31T06:44:07;879.55;;;815.10;;
16387;SDS011;8303;53.446;9.988;2023-07-31T06:46:34;889.95;;;825.35;;
16387;SDS011;8303;53.446;9.988;2023-07-31T06:49:01;859.78;;;797.70;;
16387;SDS011;8303;53.446;9.988;2023-07-31T06:51:28;859.40;;;797.13;;
16387;SDS011;8303;53.446;9.988;2023-07-31T06:53:56;864.58;;;801.97;;
16387;SDS011;8303;53.446;9.988;2023-07-31T06:56:25;825.92;;;767.22;;
16387;SDS011;8303;53.446;9.988;2023-07-31T06:58:52;837.70;;;778.40;;
16387;SDS011;8303;53.446;9.988;2023-07-31T07:01:20;851.10;;;790.00;;
16387;SDS011;8303;53.446;9.988;2023-07-31T07:03:47;675.88;;;631.00;;
16387;SDS011;8303;53.446;9.988;2023-07-31T07:06:15;719.70;;;670.58;;
16387;SDS011;8303;53.446;9.988;2023-07-31T07:08:42;703.15;;;655.85;;
16387;SDS011;8303;53.446;9.988;2023-07-31T07:11:10;625.13;;;584.33;;
16387;SDS011;8303;53.446;9.988;2023-07-31T07:13:36;698.55;;;651.50;;
16387;SDS011;8303;53.446;9.988;2023-07-31T07:16:03;736.92;;;686.53;;
16387;SDS011;8303;53.446;9.988;2023-07-31T07:18:32;738.53;;;688.17;;
16387;SDS011;8303;53.446;9.988;2023-07-31T07:20:59;691.90;;;645.58;;
16387;SDS011;8303;53.446;9.988;2023-07-31T07:23:27;669.33;;;624.75;;
16387;SDS011;8303;53.446;9.988;2023-07-31T07:25:54;645.55;;;602.13;;
16387;SDS011;8303;53.446;9.988;2023-07-31T07:28:21;673.78;;;628.92;;
16387;SDS011;8303;53.446;9.988;2023-07-31T07:30:50;695.13;;;647.80;;
16387;SDS011;8303;53.446;9.988;2023-07-31T07:33:18;735.05;;;684.47;;
16387;SDS011;8303;53.446;9.988;2023-07-31T07:35:47;761.95;;;709.05;;
16387;SDS011;8303;53.446;9.988;2023-07-31T07:38:14;772.15;;;717.83;;
16387;SDS011;8303;53.446;9.988;2023-07-31T07:40:41;796.42;;;739.22;;
16387;SDS011;8303;53.446;9.988;2023-07-31T07:43:08;777.10;;;722.80;;
16387;SDS011;8303;53.446;9.988;2023-07-31T07:45:38;740.38;;;689.70;;
16387;SDS011;8303;53.446;9.988;2023-07-31T07:48:05;739.83;;;690.10;;
16387;SDS011;8303;53.446;9.988;2023-07-31T07:50:32;722.35;;;673.80;;
16387;SDS011;8303;53.446;9.988;2023-07-31T07:53:00;688.38;;;642.13;;
16387;SDS011;8303;53.446;9.988;2023-07-31T07:55:27;699.17;;;652.72;;
16387;SDS011;8303;53.446;9.988;2023-07-31T07:57:54;696.40;;;649.70;;
16387;SDS011;8303;53.446;9.988;2023-07-31T08:00:21;706.47;;;659.65;;
16387;SDS011;8303;53.446;9.988;2023-07-31T08:02:48;693.22;;;647.33;;
16387;SDS011;8303;53.446;9.988;2023-07-31T08:05:15;641.38;;;599.47;;
16387;SDS011;8303;53.446;9.988;2023-07-31T08:07:43;690.92;;;645.28;;
16387;SDS011;8303;53.446;9.988;2023-07-31T08:10:11;693.63;;;648.08;;
16387;SDS011;8303;53.446;9.988;2023-07-31T08:12:38;682.38;;;636.90;;
16387;SDS011;8303;53.446;9.988;2023-07-31T08:15:06;674.40;;;629.65;;
16387;SDS011;8303;53.446;9.988;2023-07-31T08:17:33;661.88;;;618.47;;
16387;SDS011;8303;53.446;9.988;2023-07-31T08:20:03;663.25;;;619.30;;
16387;SDS011;8303;53.446;9.988;2023-07-31T08:22:31;662.03;;;618.92;;
16387;SDS011;8303;53.446;9.988;2023-07-31T08:24:58;645.85;;;603.50;;
16387;SDS011;8303;53.446;9.988;2023-07-31T08:27:26;656.50;;;612.55;;
16387;SDS011;8303;53.446;9.988;2023-07-31T08:29:53;633.83;;;593.22;;
16387;SDS011;8303;53.446;9.988;2023-07-31T08:32:23;660.88;;;617.85;;
16387;SDS011;8303;53.446;9.988;2023-07-31T08:34:50;644.45;;;602.05;;
16387;SDS011;8303;53.446;9.988;2023-07-31T08:37:19;688.75;;;642.85;;
16387;SDS011;8303;53.446;9.988;2023-07-31T08:39:45;685.40;;;640.03;;
16387;SDS011;8303;53.446;9.988;2023-07-31T08:42:12;679.53;;;634.53;;
16387;SDS011;8303;53.446;9.988;2023-07-31T08:44:41;668.67;;;624.17;;
16387;SDS011;8303;53.446;9.988;2023-07-31T08:47:09;689.75;;;643.88;;
16387;SDS011;8303;53.446;9.988;2023-07-31T08:49:37;696.58;;;650.28;;
16387;SDS011;8303;53.446;9.988;2023-07-31T08:52:06;688.95;;;642.75;;
16387;SDS011;8303;53.446;9.988;2023-07-31T08:54:36;723.72;;;674.55;;
16387;SDS011;8303;53.446;9.988;2023-07-31T08:57:05;721.38;;;672.35;;
16387;SDS011;8303;53.446;9.988;2023-07-31T08:59:34;698.90;;;651.83;;
16387;SDS011;8303;53.446;9.988;2023-07-31T09:02:03;710.92;;;663.22;;
16387;SDS011;8303;53.446;9.988;2023-07-31T09:04:32;678.03;;;633.10;;
16387;SDS011;8303;53.446;9.988;2023-07-31T09:07:00;645.97;;;604.15;;
16387;SDS011;8303;53.446;9.988;2023-07-31T09:09:28;698.80;;;651.40;;
16387;SDS011;8303;53.446;9.988;2023-07-31T09:11:55;678.97;;;633.50;;
16387;SDS011;8303;53.446;9.988;2023-07-31T09:14:24;719.03;;;669.92;;
16387;SDS011;8303;53.446;9.988;2023-07-31T09:16:52;708.28;;;660.60;;
16387;SDS011;8303;53.446;9.988;2023-07-31T09:19:28;737.63;;;687.08;;
16387;SDS011;8303;53.446;9.988;2023-07-31T09:21:59;707.50;;;660.05;;
16387;SDS011;8303;53.446;9.988;2023-07-31T09:24:26;747.78;;;696.28;;
16387;SDS011;8303;53.446;9.988;2023-07-31T09:26:55;725.97;;;677.10;;
16387;SDS011;8303;53.446;9.988;2023-07-31T09:29:24;728.20;;;678.90;;
16387;SDS011;8303;53.446;9.988;2023-07-31T09:31:51;726.90;;;677.72;;
16387;SDS011;8303;53.446;9.988;2023-07-31T09:34:20;739.58;;;688.97;;
16387;SDS011;8303;53.446;9.988;2023-07-31T09:37:01;719.95;;;671.13;;
16387;SDS011;8303;53.446;9.988;2023-07-31T09:39:29;691.20;;;644.45;;
16387;SDS011;8303;53.446;9.988;2023-07-31T09:41:56;711.72;;;663.70;;
16387;SDS011;8303;53.446;9.988;2023-07-31T09:44:37;729.55;;;679.92;;
16387;SDS011;8303;53.446;9.988;2023-07-31T09:47:05;718.25;;;669.25;;
16387;SDS011;8303;53.446;9.988;2023-07-31T09:49:33;764.08;;;712.17;;
16387;SDS011;8303;53.446;9.988;2023-07-31T09:52:01;719.25;;;670.38;;
16387;SDS011;8303;53.446;9.988;2023-07-31T09:54:37;742.17;;;690.65;;
16387;SDS011;8303;53.446;9.988;2023-07-31T09:57:04;732.78;;;682.70;;
16387;SDS011;8303;53.446;9.988;2023-07-31T09:59:32;763.40;;;710.53;;
16387;SDS011;8303;53.446;9.988;2023-07-31T10:01:59;729.03;;;678.80;;
16387;SDS011;8303;53.446;9.988;2023-07-31T10:04:27;784.63;;;729.40;;
16387;SDS011;8303;53.446;9.988;2023-07-31T10:06:55;762.28;;;708.30;;
16387;SDS011;8303;53.446;9.988;2023-07-31T10:09:24;778.63;;;724.63;;
16387;SDS011;8303;53.446;9.988;2023-07-31T10:11:59;829.25;;;768.83;;
16387;SDS011;8303;53.446;9.988;2023-07-31T10:14:29;834.28;;;772.60;;
16387;SDS011;8303;53.446;9.988;2023-07-31T10:16:57;880.90;;;815.50;;
16387;SDS011;8303;53.446;9.988;2023-07-31T10:19:25;875.83;;;810.17;;
16387;SDS011;8303;53.446;9.988;2023-07-31T10:21:53;857.90;;;793.85;;
16387;SDS011;8303;53.446;9.988;2023-07-31T10:24:22;817.15;;;756.47;;
16387;SDS011;8303;53.446;9.988;2023-07-31T10:26:52;854.75;;;790.72;;
16387;SDS011;8303;53.446;9.988;2023-07-31T10:29:22;875.03;;;809.38;;
16387;SDS011;8303;53.446;9.988;2023-07-31T10:31:51;882.60;;;817.33;;
16387;SDS011;8303;53.446;9.988;2023-07-31T10:34:19;865.03;;;800.13;;
16387;SDS011;8303;53.446;9.988;2023-07-31T10:36:46;865.40;;;800.22;;
16387;SDS011;8303;53.446;9.988;2023-07-31T10:42:09;873.45;;;809.08;;
16387;SDS011;8303;53.446;9.988;2023-07-31T10:44:37;894.63;;;827.80;;
16387;SDS011;8303;53.446;9.988;2023-07-31T10:47:04;862.72;;;797.72;;
16387;SDS011;8303;53.446;9.988;2023-07-31T10:49:33;873.90;;;809.22;;
16387;SDS011;8303;53.446;9.988;2023-07-31T10:52:00;812.03;;;754.33;;
16387;SDS011;8303;53.446;9.988;2023-07-31T10:54:29;791.25;;;735.45;;
16387;SDS011;8303;53.446;9.988;2023-07-31T10:56:58;801.38;;;744.67;;
16387;SDS011;8303;53.446;9.988;2023-07-31T10:59:26;766.45;;;714.13;;
16387;SDS011;8303;53.446;9.988;2023-07-31T11:01:54;713.78;;;664.80;;
16387;SDS011;8303;53.446;9.988;2023-07-31T11:04:23;740.50;;;689.67;;
16387;SDS011;8303;53.446;9.988;2023-07-31T11:06:55;797.90;;;741.10;;
16387;SDS011;8303;53.446;9.988;2023-07-31T11:09:22;763.75;;;710.35;;
16387;SDS011;8303;53.446;9.988;2023-07-31T11:11:49;770.15;;;716.72;;
16387;SDS011;8303;53.446;9.988;2023-07-31T11:14:18;818.65;;;759.65;;
16387;SDS011;8303;53.446;9.988;2023-07-31T11:16:46;777.50;;;723.38;;
16387;SDS011;8303;53.446;9.988;2023-07-31T11:19:20;772.50;;;717.83;;
16387;SDS011;8303;53.446;9.988;2023-07-31T11:21:48;782.55;;;727.25;;
16387;SDS011;8303;53.446;9.988;2023-07-31T11:24:15;808.45;;;750.80;;
16387;SDS011;8303;53.446;9.988;2023-07-31T11:26:47;778.40;;;724.17;;
16387;SDS011;8303;53.446;9.988;2023-07-31T11:29:15;775.60;;;721.28;;
16387;SDS011;8303;53.446;9.988;2023-07-31T11:31:44;796.25;;;739.38;;
16387;SDS011;8303;53.446;9.988;2023-07-31T11:34:12;794.50;;;739.45;;
16387;SDS011;8303;53.446;9.988;2023-07-31T11:36:40;834.70;;;773.25;;
16387;SDS011;8303;53.446;9.988;2023-07-31T11:39:07;785.25;;;730.30;;
16387;SDS011;8303;53.446;9.988;2023-07-31T11:41:35;830.70;;;770.78;;
16387;SDS011;8303;53.446;9.988;2023-07-31T11:44:02;818.97;;;758.72;;
16387;SDS011;8303;53.446;9.988;2023-07-31T11:46:30;837.58;;;776.70;;
16387;SDS011;8303;53.446;9.988;2023-07-31T11:49:00;869.97;;;805.08;;
16387;SDS011;8303;53.446;9.988;2023-07-31T11:51:27;856.00;;;793.05;;
16387;SDS011;8303;53.446;9.988;2023-07-31T11:53:57;861.03;;;796.35;;
16387;SDS011;8303;53.446;9.988;2023-07-31T11:56:26;873.63;;;809.67;;
16387;SDS011;8303;53.446;9.988;2023-07-31T11:58:55;865.03;;;800.67;;
16387;SDS011;8303;53.446;9.988;2023-07-31T12:01:26;870.97;;;805.67;;
16387;SDS011;8303;53.446;9.988;2023-07-31T12:03:54;851.15;;;788.30;;
16387;SDS011;8303;53.446;9.988;2023-07-31T12:06:24;875.53;;;811.00;;
16387;SDS011;8303;53.446;9.988;2023-07-31T12:09:00;866.78;;;804.22;;
16387;SDS011;8303;53.446;9.988;2023-07-31T12:11:29;845.47;;;783.88;;
16387;SDS011;8303;53.446;9.988;2023-07-31T12:13:55;832.97;;;772.85;;
16387;SDS011;8303;53.446;9.988;2023-07-31T12:16:25;845.83;;;784.70;;
16387;SDS011;8303;53.446;9.988;2023-07-31T12:18:52;857.35;;;793.38;;
16387;SDS011;8303;53.446;9.988;2023-07-31T12:21:19;856.42;;;793.88;;
16387;SDS011;8303;53.446;9.988;2023-07-31T12:23:48;864.85;;;799.65;;
16387;SDS011;8303;53.446;9.988;2023-07-31T12:26:15;880.25;;;813.47;;
16387;SDS011;8303;53.446;9.988;2023-07-31T12:28:43;891.15;;;823.47;;
16387;SDS011;8303;53.446;9.988;2023-07-31T12:31:11;870.17;;;805.97;;
16387;SDS011;8303;53.446;9.988;2023-07-31T12:33:40;874.65;;;809.72;;
16387;SDS011;8303;53.446;9.988;2023-07-31T12:36:10;883.10;;;818.08;;
16387;SDS011;8303;53.446;9.988;2023-07-31T12:38:39;856.75;;;794.00;;
16387;SDS011;8303;53.446;9.988;2023-07-31T12:41:07;863.40;;;800.20;;
16387;SDS011;8303;53.446;9.988;2023-07-31T12:43:39;886.45;;;820.30;;
16387;SDS011;8303;53.446;9.988;2023-07-31T12:46:07;853.42;;;789.45;;
16387;SDS011;8303;53.446;9.988;2023-07-31T12:48:35;856.58;;;792.53;;
16387;SDS011;8303;53.446;9.988;2023-07-31T12:51:04;858.00;;;795.55;;
16387;SDS011;8303;53.446;9.988;2023-07-31T12:53:31;854.25;;;790.20;;
16387;SDS011;8303;53.446;9.988;2023-07-31T12:55:59;869.42;;;805.00;;
16387;SDS011;8303;53.446;9.988;2023-07-31T12:58:27;875.90;;;810.63;;
16387;SDS011;8303;53.446;9.988;2023-07-31T13:00:54;872.17;;;808.00;;
16387;SDS011;8303;53.446;9.988;2023-07-31T13:03:24;892.75;;;825.90;;
16387;SDS011;8303;53.446;9.988;2023-07-31T13:05:51;870.15;;;804.20;;
16387;SDS011;8303;53.446;9.988;2023-07-31T13:08:18;868.63;;;804.28;;
16387;SDS011;8303;53.446;9.988;2023-07-31T13:10:45;888.00;;;821.13;;
16387;SDS011;8303;53.446;9.988;2023-07-31T13:13:13;847.65;;;785.45;;
16387;SDS011;8303;53.446;9.988;2023-07-31T13:15:41;918.58;;;846.95;;
16387;SDS011;8303;53.446;9.988;2023-07-31T13:18:16;862.95;;;798.80;;
16387;SDS011;8303;53.446;9.988;2023-07-31T13:20:46;857.25;;;794.15;;
16387;SDS011;8303;53.446;9.988;2023-07-31T13:23:13;879.72;;;814.63;;
16387;SDS011;8303;53.446;9.988;2023-07-31T13:25:41;876.40;;;811.90;;
16387;SDS011;8303;53.446;9.988;2023-07-31T13:28:08;808.42;;;749.00;;
16387;SDS011;8303;53.446;9.988;2023-07-31T13:30:35;863.17;;;798.05;;
16387;SDS011;8303;53.446;9.988;2023-07-31T13:33:03;865.03;;;801.08;;
16387;SDS011;8303;53.446;9.988;2023-07-31T13:35:30;824.88;;;765.70;;
16387;SDS011;8303;53.446;9.988;2023-07-31T13:37:57;837.13;;;776.78;;
16387;SDS011;8303;53.446;9.988;2023-07-31T13:40:24;858.20;;;793.88;;
16387;SDS011;8303;53.446;9.988;2023-07-31T13:42:51;876.45;;;810.83;;
16387;SDS011;8303;53.446;9.988;2023-07-31T13:45:19;839.92;;;779.28;;
16387;SDS011;8303;53.446;9.988;2023-07-31T13:47:47;787.65;;;732.90;;
16387;SDS011;8303;53.446;9.988;2023-07-31T13:50:18;776.75;;;723.00;;
16387;SDS011;8303;53.446;9.988;2023-07-31T13:52:46;770.65;;;717.78;;
16387;SDS011;8303;53.446;9.988;2023-07-31T13:55:13;822.22;;;764.10;;
16387;SDS011;8303;53.446;9.988;2023-07-31T13:57:40;802.05;;;744.63;;
16387;SDS011;8303;53.446;9.988;2023-07-31T14:00:08;783.58;;;728.65;;
16387;SDS011;8303;53.446;9.988;2023-07-31T14:02:36;804.45;;;747.13;;
16387;SDS011;8303;53.446;9.988;2023-07-31T14:05:04;842.10;;;781.10;;
16387;SDS011;8303;53.446;9.988;2023-07-31T14:07:33;850.58;;;787.95;;
16387;SDS011;8303;53.446;9.988;2023-07-31T14:09:59;876.70;;;811.97;;
16387;SDS011;8303;53.446;9.988;2023-07-31T14:12:28;871.70;;;806.83;;
16387;SDS011;8303;53.446;9.988;2023-07-31T14:14:55;856.53;;;793.08;;
16387;SDS011;8303;53.446;9.988;2023-07-31T14:17:22;866.40;;;803.08;;
16387;SDS011;8303;53.446;9.988;2023-07-31T14:19:49;878.15;;;811.92;;
16387;SDS011;8303;53.446;9.988;2023-07-31T14:22:26;867.63;;;803.35;;
16387;SDS011;8303;53.446;9.988;2023-07-31T14:24:55;839.80;;;777.38;;
16387;SDS011;8303;53.446;9.988;2023-07-31T14:27:23;863.65;;;798.70;;
16387;SDS011;8303;53.446;9.988;2023-07-31T14:29:50;904.22;;;834.85;;
16387;SDS011;8303;53.446;9.988;2023-07-31T14:32:17;919.00;;;848.22;;
16387;SDS011;8303;53.446;9.988;2023-07-31T14:34:44;913.17;;;844.22;;
16387;SDS011;8303;53.446;9.988;2023-07-31T14:37:11;928.30;;;858.35;;
16387;SDS011;8303;53.446;9.988;2023-07-31T14:39:37;915.63;;;846.20;;
16387;SDS011;8303;53.446;9.988;2023-07-31T14:42:06;915.95;;;844.95;;
16387;SDS011;8303;53.446;9.988;2023-07-31T14:44:33;930.70;;;857.83;;
16387;SDS011;8303;53.446;9.988;2023-07-31T14:47:00;931.63;;;859.58;;
16387;SDS011;8303;53.446;9.988;2023-07-31T14:49:27;909.85;;;841.13;;
16387;SDS011;8303;53.446;9.988;2023-07-31T14:51:54;932.80;;;862.00;;
16387;SDS011;8303;53.446;9.988;2023-07-31T14:54:21;929.03;;;858.70;;
16387;SDS011;8303;53.446;9.988;2023-07-31T14:56:48;932.00;;;860.33;;
16387;SDS011;8303;53.446;9.988;2023-07-31T14:59:19;930.20;;;858.97;;
16387;SDS011;8303;53.446;9.988;2023-07-31T15:01:46;935.95;;;865.17;;
16387;SDS011;8303;53.446;9.988;2023-07-31T15:04:13;896.00;;;828.05;;
16387;SDS011;8303;53.446;9.988;2023-07-31T15:06:40;907.15;;;837.38;;
16387;SDS011;8303;53.446;9.988;2023-07-31T15:09:07;919.17;;;849.58;;
16387;SDS011;8303;53.446;9.988;2023-07-31T15:11:34;919.60;;;848.58;;
16387;SDS011;8303;53.446;9.988;2023-07-31T15:14:01;904.60;;;834.45;;
16387;SDS011;8303;53.446;9.988;2023-07-31T15:16:30;897.33;;;830.10;;
16387;SDS011;8303;53.446;9.988;2023-07-31T15:18:57;912.50;;;842.75;;
16387;SDS011;8303;53.446;9.988;2023-07-31T15:21:24;889.28;;;820.80;;
16387;SDS011;8303;53.446;9.988;2023-07-31T15:23:51;904.47;;;834.72;;
16387;SDS011;8303;53.446;9.988;2023-07-31T15:26:19;945.63;;;873.25;;
16387;SDS011;8303;53.446;9.988;2023-07-31T15:28:49;922.22;;;851.38;;
16387;SDS011;8303;53.446;9.988;2023-07-31T15:31:22;934.08;;;862.97;;
16387;SDS011;8303;53.446;9.988;2023-07-31T15:33:50;1164.57;;;999.90;;
16387;SDS011;8303;53.446;9.988;2023-07-31T15:36:17;912.88;;;844.40;;
16387;SDS011;8303;53.446;9.988;2023-07-31T15:38:44;923.72;;;852.85;;
16387;SDS011;8303;53.446;9.988;2023-07-31T15:41:15;922.80;;;853.08;;
16387;SDS011;8303;53.446;9.988;2023-07-31T15:43:45;911.17;;;842.45;;
16387;SDS011;8303;53.446;9.988;2023-07-31T15:46:13;909.70;;;840.95;;
16387;SDS011;8303;53.446;9.988;2023-07-31T15:48:40;889.08;;;823.28;;
16387;SDS011;8303;53.446;9.988;2023-07-31T15:51:09;924.40;;;854.80;;
16387;SDS011;8303;53.446;9.988;2023-07-31T15:53:36;910.03;;;839.97;;
16387;SDS011;8303;53.446;9.988;2023-07-31T15:56:03;882.42;;;815.72;;
16387;SDS011;8303;53.446;9.988;2023-07-31T15:58:30;897.72;;;831.08;;
16387;SDS011;8303;53.446;9.988;2023-07-31T16:00:57;921.42;;;851.35;;
16387;SDS011;8303;53.446;9.988;2023-07-31T16:03:24;900.00;;;832.38;;
16387;SDS011;8303;53.446;9.988;2023-07-31T16:05:51;909.20;;;842.13;;
16387;SDS011;8303;53.446;9.988;2023-07-31T16:08:20;902.92;;;834.03;;
16387;SDS011;8303;53.446;9.988;2023-07-31T16:10:47;882.25;;;815.58;;
16387;SDS011;8303;53.446;9.988;2023-07-31T16:13:14;897.78;;;831.55;;
16387;SDS011;8303;53.446;9.988;2023-07-31T16:15:42;885.55;;;820.90;;
16387;SDS011;8303;53.446;9.988;2023-07-31T16:18:09;896.78;;;829.95;;
16387;SDS011;8303;53.446;9.988;2023-07-31T16:20:36;862.78;;;799.60;;
16387;SDS011;8303;53.446;9.988;2023-07-31T16:23:03;889.22;;;823.40;;
16387;SDS011;8303;53.446;9.988;2023-07-31T16:25:33;883.45;;;817.95;;
16387;SDS011;8303;53.446;9.988;2023-07-31T16:28:00;894.10;;;827.92;;
16387;SDS011;8303;53.446;9.988;2023-07-31T16:30:27;889.72;;;823.22;;
16387;SDS011;8303;53.446;9.988;2023-07-31T16:32:54;907.05;;;840.83;;
16387;SDS011;8303;53.446;9.988;2023-07-31T16:35:23;857.25;;;792.88;;
16387;SDS011;8303;53.446;9.988;2023-07-31T16:37:50;897.45;;;831.85;;
16387;SDS011;8303;53.446;9.988;2023-07-31T16:40:17;890.70;;;824.83;;
16387;SDS011;8303;53.446;9.988;2023-07-31T16:42:46;902.10;;;837.38;;
16387;SDS011;8303;53.446;9.988;2023-07-31T16:45:13;912.60;;;845.38;;
16387;SDS011;8303;53.446;9.988;2023-07-31T16:47:40;925.25;;;855.53;;
16387;SDS011;8303;53.446;9.988;2023-07-31T16:50:07;894.15;;;828.55;;
16387;SDS011;8303;53.446;9.988;2023-07-31T16:52:34;928.88;;;858.00;;
16387;SDS011;8303;53.446;9.988;2023-07-31T16:55:01;875.33;;;811.17;;
16387;SDS011;8303;53.446;9.988;2023-07-31T16:57:28;873.40;;;809.97;;
16387;SDS011;8303;53.446;9.988;2023-07-31T16:59:56;894.15;;;828.55;;
16387;SDS011;8303;53.446;9.988;2023-07-31T17:02:23;833.72;;;774.58;;
16387;SDS011;8303;53.446;9.988;2023-07-31T17:04:50;888.25;;;823.13;;
16387;SDS011;8303;53.446;9.988;2023-07-31T17:07:17;872.90;;;807.97;;
16387;SDS011;8303;53.446;9.988;2023-07-31T17:09:46;876.88;;;813.40;;
16387;SDS011;8303;53.446;9.988;2023-07-31T17:12:13;874.72;;;811.70;;
16387;SDS011;8303;53.446;9.988;2023-07-31T17:14:40;880.72;;;815.88;;
16387;SDS011;8303;53.446;9.988;2023-07-31T17:17:08;868.53;;;805.75;;
16387;SDS011;8303;53.446;9.988;2023-07-31T17:19:36;872.78;;;808.28;;
16387;SDS011;8303;53.446;9.988;2023-07-31T17:22:03;886.58;;;821.95;;
16387;SDS011;8303;53.446;9.988;2023-07-31T17:24:30;891.38;;;824.58;;
16387;SDS011;8303;53.446;9.988;2023-07-31T17:26:57;887.15;;;821.88;;
16387;SDS011;8303;53.446;9.988;2023-07-31T17:29:27;891.83;;;825.83;;
16387;SDS011;8303;53.446;9.988;2023-07-31T17:31:54;897.05;;;830.22;;
16387;SDS011;8303;53.446;9.988;2023-07-31T17:34:23;891.88;;;826.63;;
16387;SDS011;8303;53.446;9.988;2023-07-31T17:36:50;895.70;;;830.00;;
16387;SDS011;8303;53.446;9.988;2023-07-31T17:39:16;913.60;;;844.80;;
16387;SDS011;8303;53.446;9.988;2023-07-31T17:41:43;901.38;;;834.67;;
16387;SDS011;8303;53.446;9.988;2023-07-31T17:44:10;925.42;;;854.00;;
16387;SDS011;8303;53.446;9.988;2023-07-31T17:46:37;931.92;;;861.55;;
16387;SDS011;8303;53.446;9.988;2023-07-31T17:49:04;895.53;;;829.50;;
16387;SDS011;8303;53.446;9.988;2023-07-31T17:51:33;915.70;;;848.45;;
16387;SDS011;8303;53.446;9.988;2023-07-31T17:54:01;916.50;;;846.92;;
16387;SDS011;8303;53.446;9.988;2023-07-31T17:56:30;914.35;;;844.28;;
16387;SDS011;8303;53.446;9.988;2023-07-31T17:58:59;911.35;;;843.65;;
16387;SDS011;8303;53.446;9.988;2023-07-31T18:01:26;913.13;;;843.22;;
16387;SDS011;8303;53.446;9.988;2023-07-31T18:03:52;901.97;;;834.85;;
16387;SDS011;8303;53.446;9.988;2023-07-31T18:06:19;899.05;;;831.50;;
16387;SDS011;8303;53.446;9.988;2023-07-31T18:08:47;907.72;;;838.90;;
16387;SDS011;8303;53.446;9.988;2023-07-31T18:11:14;905.28;;;840.20;;
16387;SDS011;8303;53.446;9.988;2023-07-31T18:13:41;910.75;;;842.83;;
16387;SDS011;8303;53.446;9.988;2023-07-31T18:16:08;901.25;;;833.88;;
16387;SDS011;8303;53.446;9.988;2023-07-31T18:18:35;898.92;;;832.55;;
16387;SDS011;8303;53.446;9.988;2023-07-31T18:21:02;867.25;;;802.90;;
16387;SDS011;8303;53.446;9.988;2023-07-31T18:23:30;919.65;;;850.97;;
16387;SDS011;8303;53.446;9.988;2023-07-31T18:25:59;909.67;;;842.33;;
16387;SDS011;8303;53.446;9.988;2023-07-31T18:28:25;875.28;;;810.53;;
16387;SDS011;8303;53.446;9.988;2023-07-31T18:30:56;888.97;;;822.38;;
16387;SDS011;8303;53.446;9.988;2023-07-31T18:33:23;883.28;;;819.10;;
16387;SDS011;8303;53.446;9.988;2023-07-31T18:35:50;869.13;;;804.60;;
16387;SDS011;8303;53.446;9.988;2023-07-31T18:38:17;899.58;;;832.33;;
16387;SDS011;8303;53.446;9.988;2023-07-31T18:40:44;908.92;;;841.63;;
16387;SDS011;8303;53.446;9.988;2023-07-31T18:43:12;899.42;;;832.13;;
16387;SDS011;8303;53.446;9.988;2023-07-31T18:45:39;877.80;;;812.45;;
16387;SDS011;8303;53.446;9.988;2023-07-31T18:48:06;912.55;;;844.70;;
16387;SDS011;8303;53.446;9.988;2023-07-31T18:50:33;867.70;;;804.10;;
16387;SDS011;8303;53.446;9.988;2023-07-31T18:53:00;882.85;;;819.05;;
16387;SDS011;8303;53.446;9.988;2023-07-31T18:55:28;875.83;;;811.90;;
16387;SDS011;8303;53.446;9.988;2023-07-31T18:57:55;864.00;;;800.72;;